sensor_id;sensor_type;location;lat;lon;timestamp;temperature;humidity
81315;DHT22;70781;52.510;5.718;2023-07-31T00:00:09;16.40;76.10
81315;DHT22;70781;52.510;5.718;2023-07-31T00:02:38;16.40;76.10
81315;DHT22;70781;52.510;5.718;2023-07-31T00:05:08;16.40;76.10
81315;DHT22;70781;52.510;5.718;2023-07-31T00:07:38;16.40;76.10
81315;DHT22;70781;52.510;5.718;2023-07-31T00:10:10;16.40;76.10
81315;DHT22;70781;52.510;5.718;2023-07-31T00:12:40;16.40;76.20
81315;DHT22;70781;52.510;5.718;2023-07-31T00:15:10;16.40;76.30
81315;DHT22;70781;52.510;5.718;2023-07-31T00:17:39;16.40;76.30
81315;DHT22;70781;52.510;5.718;2023-07-31T00:20:10;16.40;76.40
81315;DHT22;70781;52.510;5.718;2023-07-31T00:22:39;16.40;76.40
81315;DHT22;70781;52.510;5.718;2023-07-31T00:25:11;16.30;76.40
81315;DHT22;70781;52.510;5.718;2023-07-31T00:27:40;16.30;76.50
81315;DHT22;70781;52.510;5.718;2023-07-31T00:30:11;16.30;76.50
81315;DHT22;70781;52.510;5.718;2023-07-31T00:32:41;16.30;76.60
81315;DHT22;70781;52.510;5.718;2023-07-31T00:35:10;16.30;76.60
81315;DHT22;70781;52.510;5.718;2023-07-31T00:37:39;16.30;76.60
81315;DHT22;70781;52.510;5.718;2023-07-31T00:40:11;16.40;76.70
81315;DHT22;70781;52.510;5.718;2023-07-31T00:42:40;16.40;76.80
81315;DHT22;70781;52.510;5.718;2023-07-31T00:45:09;16.40;76.70
81315;DHT22;70781;52.510;5.718;2023-07-31T00:47:39;16.40;76.80
81315;DHT22;70781;52.510;5.718;2023-07-31T00:50:08;16.40;76.80
81315;DHT22;70781;52.510;5.718;2023-07-31T00:52:39;16.40;76.90
81315;DHT22;70781;52.510;5.718;2023-07-31T00:55:11;16.40;77.00
81315;DHT22;70781;52.510;5.718;2023-07-31T00:57:41;16.40;77.00
81315;DHT22;70781;52.510;5.718;2023-07-31T01:00:12;16.40;77.10
81315;DHT22;70781;52.510;5.718;2023-07-31T01:02:41;16.40;77.10
81315;DHT22;70781;52.510;5.718;2023-07-31T01:05:10;16.40;77.10
81315;DHT22;70781;52.510;5.718;2023-07-31T01:07:44;16.50;77.10
81315;DHT22;70781;52.510;5.718;2023-07-31T01:10:21;16.50;77.20
81315;DHT22;70781;52.510;5.718;2023-07-31T01:12:53;16.50;77.20
81315;DHT22;70781;52.510;5.718;2023-07-31T01:15:24;16.50;77.30
81315;DHT22;70781;52.510;5.718;2023-07-31T01:17:53;16.50;77.30
81315;DHT22;70781;52.510;5.718;2023-07-31T01:20:24;16.50;77.30
81315;DHT22;70781;52.510;5.718;2023-07-31T01:23:13;16.50;77.50
81315;DHT22;70781;52.510;5.718;2023-07-31T01:26:05;16.60;77.50
81315;DHT22;70781;52.510;5.718;2023-07-31T01:28:47;16.60;77.60
81315;DHT22;70781;52.510;5.718;2023-07-31T01:31:22;16.60;77.60
81315;DHT22;70781;52.510;5.718;2023-07-31T01:33:53;16.70;77.60
81315;DHT22;70781;52.510;5.718;2023-07-31T01:36:23;16.70;77.60
81315;DHT22;70781;52.510;5.718;2023-07-31T01:38:58;16.70;77.70
81315;DHT22;70781;52.510;5.718;2023-07-31T01:41:29;16.80;77.70
81315;DHT22;70781;52.510;5.718;2023-07-31T01:43:59;16.80;77.80
81315;DHT22;70781;52.510;5.718;2023-07-31T01:46:28;16.80;77.80
81315;DHT22;70781;52.510;5.718;2023-07-31T01:48:57;16.80;77.90
81315;DHT22;70781;52.510;5.718;2023-07-31T01:51:26;16.90;78.00
81315;DHT22;70781;52.510;5.718;2023-07-31T01:54:00;16.90;78.00
81315;DHT22;70781;52.510;5.718;2023-07-31T01:56:31;16.90;78.10
81315;DHT22;70781;52.510;5.718;2023-07-31T01:59:01;17.00;78.10
81315;DHT22;70781;52.510;5.718;2023-07-31T02:01:30;17.00;78.10
81315;DHT22;70781;52.510;5.718;2023-07-31T02:03:59;17.00;78.20
81315;DHT22;70781;52.510;5.718;2023-07-31T02:06:29;17.00;78.30
81315;DHT22;70781;52.510;5.718;2023-07-31T02:08:58;17.00;78.30
81315;DHT22;70781;52.510;5.718;2023-07-31T02:11:27;17.00;78.30
81315;DHT22;70781;52.510;5.718;2023-07-31T02:13:59;17.00;78.40
81315;DHT22;70781;52.510;5.718;2023-07-31T02:16:28;17.00;78.50
81315;DHT22;70781;52.510;5.718;2023-07-31T02:18:57;17.00;78.40
81315;DHT22;70781;52.510;5.718;2023-07-31T02:21:27;17.00;78.50
81315;DHT22;70781;52.510;5.718;2023-07-31T02:23:56;17.00;78.60
81315;DHT22;70781;52.510;5.718;2023-07-31T02:26:25;17.00;78.60
81315;DHT22;70781;52.510;5.718;2023-07-31T02:28:54;17.10;78.70
81315;DHT22;70781;52.510;5.718;2023-07-31T02:31:26;17.00;78.70
81315;DHT22;70781;52.510;5.718;2023-07-31T02:33:55;17.00;78.80
81315;DHT22;70781;52.510;5.718;2023-07-31T02:36:24;17.10;78.80
81315;DHT22;70781;52.510;5.718;2023-07-31T02:38:55;17.10;78.70
81315;DHT22;70781;52.510;5.718;2023-07-31T02:41:26;17.00;78.80
81315;DHT22;70781;52.510;5.718;2023-07-31T02:43:55;17.00;78.90
81315;DHT22;70781;52.510;5.718;2023-07-31T02:46:27;17.10;78.90
81315;DHT22;70781;52.510;5.718;2023-07-31T02:48:57;17.00;78.90
81315;DHT22;70781;52.510;5.718;2023-07-31T02:51:26;17.10;78.90
81315;DHT22;70781;52.510;5.718;2023-07-31T02:53:56;17.10;79.00
81315;DHT22;70781;52.510;5.718;2023-07-31T02:56:25;17.10;79.00
81315;DHT22;70781;52.510;5.718;2023-07-31T02:58:54;17.10;79.10
81315;DHT22;70781;52.510;5.718;2023-07-31T03:01:23;17.10;79.10
81315;DHT22;70781;52.510;5.718;2023-07-31T03:03:56;17.00;79.10
81315;DHT22;70781;52.510;5.718;2023-07-31T03:06:25;17.10;79.20
81315;DHT22;70781;52.510;5.718;2023-07-31T03:08:55;17.10;79.10
81315;DHT22;70781;52.510;5.718;2023-07-31T03:11:24;17.10;79.10
81315;DHT22;70781;52.510;5.718;2023-07-31T03:13:53;17.10;79.10
81315;DHT22;70781;52.510;5.718;2023-07-31T03:16:23;17.00;79.20
81315;DHT22;70781;52.510;5.718;2023-07-31T03:18:54;17.10;79.20
81315;DHT22;70781;52.510;5.718;2023-07-31T03:21:23;17.00;79.20
81315;DHT22;70781;52.510;5.718;2023-07-31T03:23:53;17.00;79.20
81315;DHT22;70781;52.510;5.718;2023-07-31T03:26:22;17.00;79.20
81315;DHT22;70781;52.510;5.718;2023-07-31T03:28:51;17.10;79.20
81315;DHT22;70781;52.510;5.718;2023-07-31T03:31:20;17.10;79.30
81315;DHT22;70781;52.510;5.718;2023-07-31T03:33:50;17.10;79.30
81315;DHT22;70781;52.510;5.718;2023-07-31T03:36:21;17.00;79.30
81315;DHT22;70781;52.510;5.718;2023-07-31T03:38:51;17.10;79.40
81315;DHT22;70781;52.510;5.718;2023-07-31T03:41:20;17.10;79.30
81315;DHT22;70781;52.510;5.718;2023-07-31T03:43:50;17.00;79.40
81315;DHT22;70781;52.510;5.718;2023-07-31T03:46:22;17.00;79.40
81315;DHT22;70781;52.510;5.718;2023-07-31T03:48:51;17.00;79.50
81315;DHT22;70781;52.510;5.718;2023-07-31T03:51:23;17.00;79.50
81315;DHT22;70781;52.510;5.718;2023-07-31T03:53:52;17.00;79.50
81315;DHT22;70781;52.510;5.718;2023-07-31T03:56:21;17.00;79.50
81315;DHT22;70781;52.510;5.718;2023-07-31T03:58:50;17.00;79.50
81315;DHT22;70781;52.510;5.718;2023-07-31T04:01:20;17.00;79.50
81315;DHT22;70781;52.510;5.718;2023-07-31T04:03:49;17.00;79.60
81315;DHT22;70781;52.510;5.718;2023-07-31T04:06:18;17.00;79.60
81315;DHT22;70781;52.510;5.718;2023-07-31T04:08:50;17.00;79.60
81315;DHT22;70781;52.510;5.718;2023-07-31T04:11:19;17.00;79.70
81315;DHT22;70781;52.510;5.718;2023-07-31T04:13:48;17.00;79.60
81315;DHT22;70781;52.510;5.718;2023-07-31T04:16:17;17.00;79.70
81315;DHT22;70781;52.510;5.718;2023-07-31T04:18:47;17.00;79.70
81315;DHT22;70781;52.510;5.718;2023-07-31T04:21:16;17.00;79.70
81315;DHT22;70781;52.510;5.718;2023-07-31T04:23:45;17.00;79.70
81315;DHT22;70781;52.510;5.718;2023-07-31T04:26:17;17.00;79.70
81315;DHT22;70781;52.510;5.718;2023-07-31T04:28:46;17.00;79.70
81315;DHT22;70781;52.510;5.718;2023-07-31T04:31:15;17.00;79.80
81315;DHT22;70781;52.510;5.718;2023-07-31T04:33:44;17.00;79.80
81315;DHT22;70781;52.510;5.718;2023-07-31T04:36:13;17.00;79.80
81315;DHT22;70781;52.510;5.718;2023-07-31T04:38:43;17.00;79.80
81315;DHT22;70781;52.510;5.718;2023-07-31T04:41:12;17.00;79.80
81315;DHT22;70781;52.510;5.718;2023-07-31T04:43:44;17.00;79.90
81315;DHT22;70781;52.510;5.718;2023-07-31T04:46:13;17.00;79.90
81315;DHT22;70781;52.510;5.718;2023-07-31T04:48:42;17.00;79.90
81315;DHT22;70781;52.510;5.718;2023-07-31T04:51:11;17.00;79.90
81315;DHT22;70781;52.510;5.718;2023-07-31T04:53:40;17.00;79.90
81315;DHT22;70781;52.510;5.718;2023-07-31T04:56:10;17.00;80.00
81315;DHT22;70781;52.510;5.718;2023-07-31T04:58:42;17.10;80.00
81315;DHT22;70781;52.510;5.718;2023-07-31T05:01:12;17.00;79.90
81315;DHT22;70781;52.510;5.718;2023-07-31T05:03:41;17.10;80.00
81315;DHT22;70781;52.510;5.718;2023-07-31T05:06:10;17.00;80.00
81315;DHT22;70781;52.510;5.718;2023-07-31T05:08:39;17.00;80.00
81315;DHT22;70781;52.510;5.718;2023-07-31T05:11:08;17.00;80.00
81315;DHT22;70781;52.510;5.718;2023-07-31T05:13:38;17.00;80.00
81315;DHT22;70781;52.510;5.718;2023-07-31T05:16:09;17.00;80.00
81315;DHT22;70781;52.510;5.718;2023-07-31T05:18:39;17.00;80.00
81315;DHT22;70781;52.510;5.718;2023-07-31T05:21:08;17.00;80.00
81315;DHT22;70781;52.510;5.718;2023-07-31T05:23:37;17.10;80.00
81315;DHT22;70781;52.510;5.718;2023-07-31T05:26:07;17.00;80.10
81315;DHT22;70781;52.510;5.718;2023-07-31T05:28:37;17.00;80.10
81315;DHT22;70781;52.510;5.718;2023-07-31T05:31:06;17.10;80.00
81315;DHT22;70781;52.510;5.718;2023-07-31T05:33:37;17.10;80.10
81315;DHT22;70781;52.510;5.718;2023-07-31T05:36:06;17.10;80.10
81315;DHT22;70781;52.510;5.718;2023-07-31T05:38:36;17.10;80.10
81315;DHT22;70781;52.510;5.718;2023-07-31T05:41:05;17.10;80.10
81315;DHT22;70781;52.510;5.718;2023-07-31T05:43:34;17.10;80.10
81315;DHT22;70781;52.510;5.718;2023-07-31T05:46:03;17.10;80.10
81315;DHT22;70781;52.510;5.718;2023-07-31T05:48:33;17.00;80.20
81315;DHT22;70781;52.510;5.718;2023-07-31T05:51:05;17.00;80.20
81315;DHT22;70781;52.510;5.718;2023-07-31T05:53:35;17.00;80.30
81315;DHT22;70781;52.510;5.718;2023-07-31T05:56:06;17.00;80.30
81315;DHT22;70781;52.510;5.718;2023-07-31T05:58:36;17.00;80.30
81315;DHT22;70781;52.510;5.718;2023-07-31T06:01:05;17.00;80.40
81315;DHT22;70781;52.510;5.718;2023-07-31T06:03:34;16.90;80.30
81315;DHT22;70781;52.510;5.718;2023-07-31T06:06:06;16.90;80.40
81315;DHT22;70781;52.510;5.718;2023-07-31T06:08:35;16.90;80.40
81315;DHT22;70781;52.510;5.718;2023-07-31T06:11:04;16.90;80.40
81315;DHT22;70781;52.510;5.718;2023-07-31T06:13:35;16.90;80.40
81315;DHT22;70781;52.510;5.718;2023-07-31T06:16:04;16.90;80.40
81315;DHT22;70781;52.510;5.718;2023-07-31T06:18:33;16.90;80.50
81315;DHT22;70781;52.510;5.718;2023-07-31T06:21:03;16.90;80.50
81315;DHT22;70781;52.510;5.718;2023-07-31T06:23:35;16.90;80.50
81315;DHT22;70781;52.510;5.718;2023-07-31T06:26:04;16.90;80.50
81315;DHT22;70781;52.510;5.718;2023-07-31T06:28:34;16.90;80.50
81315;DHT22;70781;52.510;5.718;2023-07-31T06:31:03;16.90;80.50
81315;DHT22;70781;52.510;5.718;2023-07-31T06:33:33;16.90;80.50
81315;DHT22;70781;52.510;5.718;2023-07-31T06:36:02;17.00;80.50
81315;DHT22;70781;52.510;5.718;2023-07-31T06:38:34;17.00;80.50
81315;DHT22;70781;52.510;5.718;2023-07-31T06:41:03;17.00;80.50
81315;DHT22;70781;52.510;5.718;2023-07-31T06:43:33;17.00;80.40
81315;DHT22;70781;52.510;5.718;2023-07-31T06:46:05;17.00;80.50
81315;DHT22;70781;52.510;5.718;2023-07-31T06:48:35;17.00;80.50
81315;DHT22;70781;52.510;5.718;2023-07-31T06:51:04;16.90;80.60
81315;DHT22;70781;52.510;5.718;2023-07-31T06:53:35;16.90;80.60
81315;DHT22;70781;52.510;5.718;2023-07-31T06:56:05;16.90;80.70
81315;DHT22;70781;52.510;5.718;2023-07-31T06:58:34;16.90;80.70
81315;DHT22;70781;52.510;5.718;2023-07-31T07:01:03;16.90;80.60
81315;DHT22;70781;52.510;5.718;2023-07-31T07:03:32;16.90;80.80
81315;DHT22;70781;52.510;5.718;2023-07-31T07:06:01;16.90;80.70
81315;DHT22;70781;52.510;5.718;2023-07-31T07:08:31;16.90;80.80
81315;DHT22;70781;52.510;5.718;2023-07-31T07:11:03;16.90;80.80
81315;DHT22;70781;52.510;5.718;2023-07-31T07:13:32;16.90;80.80
81315;DHT22;70781;52.510;5.718;2023-07-31T07:16:01;16.90;80.80
81315;DHT22;70781;52.510;5.718;2023-07-31T07:18:31;16.90;80.80
81315;DHT22;70781;52.510;5.718;2023-07-31T07:21:00;16.90;80.80
81315;DHT22;70781;52.510;5.718;2023-07-31T07:23:29;16.90;80.80
81315;DHT22;70781;52.510;5.718;2023-07-31T07:25:58;17.00;80.90
81315;DHT22;70781;52.510;5.718;2023-07-31T07:28:31;17.00;80.90
81315;DHT22;70781;52.510;5.718;2023-07-31T07:31:00;17.00;80.90
81315;DHT22;70781;52.510;5.718;2023-07-31T07:33:29;17.00;80.90
81315;DHT22;70781;52.510;5.718;2023-07-31T07:36:00;17.00;80.90
81315;DHT22;70781;52.510;5.718;2023-07-31T07:38:30;17.10;80.90
81315;DHT22;70781;52.510;5.718;2023-07-31T07:40:59;17.10;80.90
81315;DHT22;70781;52.510;5.718;2023-07-31T07:43:31;17.20;80.90
81315;DHT22;70781;52.510;5.718;2023-07-31T07:46:00;17.20;81.00
81315;DHT22;70781;52.510;5.718;2023-07-31T07:48:29;17.20;81.00
81315;DHT22;70781;52.510;5.718;2023-07-31T07:50:58;17.20;80.90
81315;DHT22;70781;52.510;5.718;2023-07-31T07:53:27;17.20;81.00
81315;DHT22;70781;52.510;5.718;2023-07-31T07:55:57;17.20;81.00
81315;DHT22;70781;52.510;5.718;2023-07-31T07:58:26;17.20;81.10
81315;DHT22;70781;52.510;5.718;2023-07-31T08:00:58;17.20;81.00
81315;DHT22;70781;52.510;5.718;2023-07-31T08:03:27;17.30;81.10
81315;DHT22;70781;52.510;5.718;2023-07-31T08:05:58;17.40;81.10
81315;DHT22;70781;52.510;5.718;2023-07-31T08:08:28;17.40;81.10
81315;DHT22;70781;52.510;5.718;2023-07-31T08:10:57;17.40;81.20
81315;DHT22;70781;52.510;5.718;2023-07-31T08:13:26;17.40;81.20
81315;DHT22;70781;52.510;5.718;2023-07-31T08:15:58;17.50;81.20
81315;DHT22;70781;52.510;5.718;2023-07-31T08:18:27;17.50;81.20
81315;DHT22;70781;52.510;5.718;2023-07-31T08:20:56;17.50;81.30
81315;DHT22;70781;52.510;5.718;2023-07-31T08:23:25;17.50;81.30
81315;DHT22;70781;52.510;5.718;2023-07-31T08:25:55;17.50;81.30
81315;DHT22;70781;52.510;5.718;2023-07-31T08:28:24;17.50;81.30
81315;DHT22;70781;52.510;5.718;2023-07-31T08:30:53;17.50;81.40
81315;DHT22;70781;52.510;5.718;2023-07-31T08:33:25;17.50;81.30
81315;DHT22;70781;52.510;5.718;2023-07-31T08:35:54;17.60;81.40
81315;DHT22;70781;52.510;5.718;2023-07-31T08:38:23;17.60;81.40
81315;DHT22;70781;52.510;5.718;2023-07-31T08:40:53;17.60;81.40
81315;DHT22;70781;52.510;5.718;2023-07-31T08:43:25;17.70;81.40
81315;DHT22;70781;52.510;5.718;2023-07-31T08:45:54;17.70;81.50
81315;DHT22;70781;52.510;5.718;2023-07-31T08:48:26;17.80;81.50
81315;DHT22;70781;52.510;5.718;2023-07-31T08:50:57;17.80;81.50
81315;DHT22;70781;52.510;5.718;2023-07-31T08:53:26;17.80;81.50
81315;DHT22;70781;52.510;5.718;2023-07-31T08:55:56;17.80;81.50
81315;DHT22;70781;52.510;5.718;2023-07-31T08:58:30;17.80;81.60
81315;DHT22;70781;52.510;5.718;2023-07-31T09:01:01;17.90;81.60
81315;DHT22;70781;52.510;5.718;2023-07-31T09:03:36;18.00;81.60
81315;DHT22;70781;52.510;5.718;2023-07-31T09:06:07;18.00;81.60
81315;DHT22;70781;52.510;5.718;2023-07-31T09:08:39;18.00;81.60
81315;DHT22;70781;52.510;5.718;2023-07-31T09:11:10;18.10;81.60
81315;DHT22;70781;52.510;5.718;2023-07-31T09:13:40;18.10;81.70
81315;DHT22;70781;52.510;5.718;2023-07-31T09:16:10;18.10;81.60
81315;DHT22;70781;52.510;5.718;2023-07-31T09:18:57;18.20;81.70
81315;DHT22;70781;52.510;5.718;2023-07-31T09:21:28;18.20;81.90
81315;DHT22;70781;52.510;5.718;2023-07-31T09:23:57;18.20;81.70
81315;DHT22;70781;52.510;5.718;2023-07-31T09:26:30;18.20;81.70
81315;DHT22;70781;52.510;5.718;2023-07-31T09:29:00;18.30;81.80
81315;DHT22;70781;52.510;5.718;2023-07-31T09:31:33;18.30;81.80
81315;DHT22;70781;52.510;5.718;2023-07-31T09:34:09;18.30;81.80
81315;DHT22;70781;52.510;5.718;2023-07-31T09:36:40;18.30;81.90
81315;DHT22;70781;52.510;5.718;2023-07-31T09:39:11;18.30;81.90
81315;DHT22;70781;52.510;5.718;2023-07-31T09:41:43;18.30;82.00
81315;DHT22;70781;52.510;5.718;2023-07-31T09:44:13;18.30;82.00
81315;DHT22;70781;52.510;5.718;2023-07-31T09:46:42;18.40;82.10
81315;DHT22;70781;52.510;5.718;2023-07-31T09:49:14;18.40;82.10
81315;DHT22;70781;52.510;5.718;2023-07-31T09:51:43;18.50;82.10
81315;DHT22;70781;52.510;5.718;2023-07-31T09:54:14;18.50;82.10
81315;DHT22;70781;52.510;5.718;2023-07-31T09:56:45;18.60;82.10
81315;DHT22;70781;52.510;5.718;2023-07-31T09:59:16;18.70;82.10
81315;DHT22;70781;52.510;5.718;2023-07-31T10:01:46;18.70;82.10
81315;DHT22;70781;52.510;5.718;2023-07-31T10:04:18;18.70;82.10
81315;DHT22;70781;52.510;5.718;2023-07-31T10:06:55;18.70;82.10
81315;DHT22;70781;52.510;5.718;2023-07-31T10:09:26;18.70;82.20
81315;DHT22;70781;52.510;5.718;2023-07-31T10:12:01;18.80;82.30
81315;DHT22;70781;52.510;5.718;2023-07-31T10:14:31;18.80;82.30
81315;DHT22;70781;52.510;5.718;2023-07-31T10:17:00;18.80;82.30
81315;DHT22;70781;52.510;5.718;2023-07-31T10:19:35;18.80;82.30
81315;DHT22;70781;52.510;5.718;2023-07-31T10:22:05;18.80;82.40
81315;DHT22;70781;52.510;5.718;2023-07-31T10:24:35;18.80;82.50
81315;DHT22;70781;52.510;5.718;2023-07-31T10:27:07;18.80;82.40
81315;DHT22;70781;52.510;5.718;2023-07-31T10:29:37;18.80;82.50
81315;DHT22;70781;52.510;5.718;2023-07-31T10:32:07;18.80;82.50
81315;DHT22;70781;52.510;5.718;2023-07-31T10:34:41;18.80;82.40
81315;DHT22;70781;52.510;5.718;2023-07-31T10:37:28;18.80;82.50
81315;DHT22;70781;52.510;5.718;2023-07-31T10:40:00;18.90;82.60
81315;DHT22;70781;52.510;5.718;2023-07-31T10:42:31;18.90;82.50
81315;DHT22;70781;52.510;5.718;2023-07-31T10:45:03;19.00;82.50
81315;DHT22;70781;52.510;5.718;2023-07-31T10:47:37;19.00;82.50
81315;DHT22;70781;52.510;5.718;2023-07-31T10:50:24;19.10;82.50
81315;DHT22;70781;52.510;5.718;2023-07-31T10:52:54;19.10;82.60
81315;DHT22;70781;52.510;5.718;2023-07-31T10:55:31;19.20;82.50
81315;DHT22;70781;52.510;5.718;2023-07-31T10:58:11;19.20;82.50
81315;DHT22;70781;52.510;5.718;2023-07-31T11:00:41;19.20;82.50
81315;DHT22;70781;52.510;5.718;2023-07-31T11:03:12;19.10;82.60
81315;DHT22;70781;52.510;5.718;2023-07-31T11:05:49;19.10;82.60
81315;DHT22;70781;52.510;5.718;2023-07-31T11:08:21;19.10;82.70
81315;DHT22;70781;52.510;5.718;2023-07-31T11:11:04;19.10;82.70
81315;DHT22;70781;52.510;5.718;2023-07-31T11:13:40;19.20;82.70
81315;DHT22;70781;52.510;5.718;2023-07-31T11:16:10;19.20;82.60
81315;DHT22;70781;52.510;5.718;2023-07-31T11:18:40;19.30;82.60
81315;DHT22;70781;52.510;5.718;2023-07-31T11:21:15;19.30;82.60
81315;DHT22;70781;52.510;5.718;2023-07-31T11:23:46;19.30;82.50
81315;DHT22;70781;52.510;5.718;2023-07-31T11:26:16;19.30;82.50
81315;DHT22;70781;52.510;5.718;2023-07-31T11:28:47;19.40;82.50
81315;DHT22;70781;52.510;5.718;2023-07-31T11:31:17;19.40;82.50
81315;DHT22;70781;52.510;5.718;2023-07-31T11:33:47;19.40;82.60
81315;DHT22;70781;52.510;5.718;2023-07-31T11:36:20;19.50;82.50
81315;DHT22;70781;52.510;5.718;2023-07-31T11:38:49;19.50;82.50
81315;DHT22;70781;52.510;5.718;2023-07-31T11:41:19;19.50;82.50
81315;DHT22;70781;52.510;5.718;2023-07-31T11:43:48;19.60;82.40
81315;DHT22;70781;52.510;5.718;2023-07-31T11:46:17;19.60;82.40
81315;DHT22;70781;52.510;5.718;2023-07-31T11:48:46;19.70;82.40
81315;DHT22;70781;52.510;5.718;2023-07-31T11:51:20;19.70;82.40
81315;DHT22;70781;52.510;5.718;2023-07-31T11:53:51;19.70;82.40
81315;DHT22;70781;52.510;5.718;2023-07-31T11:56:23;19.70;82.40
81315;DHT22;70781;52.510;5.718;2023-07-31T11:58:57;19.70;82.50
81315;DHT22;70781;52.510;5.718;2023-07-31T12:01:29;19.70;82.50
81315;DHT22;70781;52.510;5.718;2023-07-31T12:03:58;19.60;82.50
81315;DHT22;70781;52.510;5.718;2023-07-31T12:06:37;19.60;82.60
81315;DHT22;70781;52.510;5.718;2023-07-31T12:09:06;19.70;82.60
81315;DHT22;70781;52.510;5.718;2023-07-31T12:11:42;19.70;82.60
81315;DHT22;70781;52.510;5.718;2023-07-31T12:14:20;19.70;82.50
81315;DHT22;70781;52.510;5.718;2023-07-31T12:16:53;19.70;82.50
81315;DHT22;70781;52.510;5.718;2023-07-31T12:19:23;19.70;82.40
81315;DHT22;70781;52.510;5.718;2023-07-31T12:21:56;19.70;82.40
81315;DHT22;70781;52.510;5.718;2023-07-31T12:24:27;19.70;82.40
81315;DHT22;70781;52.510;5.718;2023-07-31T12:26:56;19.70;82.40
81315;DHT22;70781;52.510;5.718;2023-07-31T12:29:33;19.70;82.40
81315;DHT22;70781;52.510;5.718;2023-07-31T12:32:04;19.70;82.40
81315;DHT22;70781;52.510;5.718;2023-07-31T12:34:42;19.70;82.50
81315;DHT22;70781;52.510;5.718;2023-07-31T12:37:14;19.70;82.40
81315;DHT22;70781;52.510;5.718;2023-07-31T12:39:43;19.70;82.30
81315;DHT22;70781;52.510;5.718;2023-07-31T12:42:12;19.70;82.30
81315;DHT22;70781;52.510;5.718;2023-07-31T12:44:42;19.70;82.30
81315;DHT22;70781;52.510;5.718;2023-07-31T12:47:14;19.80;82.30
81315;DHT22;70781;52.510;5.718;2023-07-31T12:49:43;19.90;82.20
81315;DHT22;70781;52.510;5.718;2023-07-31T12:52:15;19.90;82.20
81315;DHT22;70781;52.510;5.718;2023-07-31T12:54:44;19.90;82.30
81315;DHT22;70781;52.510;5.718;2023-07-31T12:57:14;20.00;82.10
81315;DHT22;70781;52.510;5.718;2023-07-31T12:59:43;20.00;82.10
81315;DHT22;70781;52.510;5.718;2023-07-31T13:02:12;20.00;82.10
81315;DHT22;70781;52.510;5.718;2023-07-31T13:04:41;19.90;82.20
81315;DHT22;70781;52.510;5.718;2023-07-31T13:07:10;19.90;82.20
81315;DHT22;70781;52.510;5.718;2023-07-31T13:09:42;19.90;82.30
81315;DHT22;70781;52.510;5.718;2023-07-31T13:12:11;19.80;82.30
81315;DHT22;70781;52.510;5.718;2023-07-31T13:14:40;19.80;82.30
81315;DHT22;70781;52.510;5.718;2023-07-31T13:17:09;19.80;82.30
81315;DHT22;70781;52.510;5.718;2023-07-31T13:19:39;19.90;82.30
81315;DHT22;70781;52.510;5.718;2023-07-31T13:22:08;19.90;82.20
81315;DHT22;70781;52.510;5.718;2023-07-31T13:24:37;19.90;82.20
81315;DHT22;70781;52.510;5.718;2023-07-31T13:27:09;19.90;82.20
81315;DHT22;70781;52.510;5.718;2023-07-31T13:29:38;19.90;82.10
81315;DHT22;70781;52.510;5.718;2023-07-31T13:32:08;19.90;82.00
81315;DHT22;70781;52.510;5.718;2023-07-31T13:34:37;19.90;82.00
81315;DHT22;70781;52.510;5.718;2023-07-31T13:37:06;19.90;82.10
81315;DHT22;70781;52.510;5.718;2023-07-31T13:39:36;19.80;82.00
81315;DHT22;70781;52.510;5.718;2023-07-31T13:42:06;19.80;82.10
81315;DHT22;70781;52.510;5.718;2023-07-31T13:44:40;19.70;82.10
81315;DHT22;70781;52.510;5.718;2023-07-31T13:47:10;19.80;82.20
81315;DHT22;70781;52.510;5.718;2023-07-31T13:49:39;19.80;82.10
81315;DHT22;70781;52.510;5.718;2023-07-31T13:52:09;19.90;82.10
81315;DHT22;70781;52.510;5.718;2023-07-31T13:54:38;20.00;82.10
81315;DHT22;70781;52.510;5.718;2023-07-31T13:57:09;20.00;82.10
81315;DHT22;70781;52.510;5.718;2023-07-31T13:59:41;20.00;82.10
81315;DHT22;70781;52.510;5.718;2023-07-31T14:02:10;20.10;82.00
81315;DHT22;70781;52.510;5.718;2023-07-31T14:04:39;20.10;81.90
81315;DHT22;70781;52.510;5.718;2023-07-31T14:07:09;20.20;81.90
81315;DHT22;70781;52.510;5.718;2023-07-31T14:09:38;20.20;81.90
81315;DHT22;70781;52.510;5.718;2023-07-31T14:12:07;20.10;81.80
81315;DHT22;70781;52.510;5.718;2023-07-31T14:14:36;20.10;81.90
81315;DHT22;70781;52.510;5.718;2023-07-31T14:17:08;20.10;81.80
81315;DHT22;70781;52.510;5.718;2023-07-31T14:19:37;20.10;81.80
81315;DHT22;70781;52.510;5.718;2023-07-31T14:22:07;20.10;81.70
81315;DHT22;70781;52.510;5.718;2023-07-31T14:24:36;20.10;81.70
81315;DHT22;70781;52.510;5.718;2023-07-31T14:27:06;20.10;81.70
81315;DHT22;70781;52.510;5.718;2023-07-31T14:29:35;20.20;81.60
81315;DHT22;70781;52.510;5.718;2023-07-31T14:32:05;20.20;81.60
81315;DHT22;70781;52.510;5.718;2023-07-31T14:34:36;20.10;81.60
81315;DHT22;70781;52.510;5.718;2023-07-31T14:37:06;20.10;81.50
81315;DHT22;70781;52.510;5.718;2023-07-31T14:39:35;20.00;81.60
81315;DHT22;70781;52.510;5.718;2023-07-31T14:42:05;20.00;81.70
81315;DHT22;70781;52.510;5.718;2023-07-31T14:44:34;20.00;81.70
81315;DHT22;70781;52.510;5.718;2023-07-31T14:47:04;19.90;81.80
81315;DHT22;70781;52.510;5.718;2023-07-31T14:49:36;19.90;81.90
81315;DHT22;70781;52.510;5.718;2023-07-31T14:52:05;19.70;82.00
81315;DHT22;70781;52.510;5.718;2023-07-31T14:54:35;19.70;82.00
81315;DHT22;70781;52.510;5.718;2023-07-31T14:57:05;19.60;82.10
81315;DHT22;70781;52.510;5.718;2023-07-31T14:59:35;19.50;82.20
81315;DHT22;70781;52.510;5.718;2023-07-31T15:02:05;19.40;82.20
81315;DHT22;70781;52.510;5.718;2023-07-31T15:04:37;19.40;82.30
81315;DHT22;70781;52.510;5.718;2023-07-31T15:07:06;19.40;82.30
81315;DHT22;70781;52.510;5.718;2023-07-31T15:09:35;19.40;82.20
81315;DHT22;70781;52.510;5.718;2023-07-31T15:12:05;19.40;82.30
81315;DHT22;70781;52.510;5.718;2023-07-31T15:14:35;19.40;82.20
81315;DHT22;70781;52.510;5.718;2023-07-31T15:17:04;19.40;82.20
81315;DHT22;70781;52.510;5.718;2023-07-31T15:19:36;19.40;82.20
81315;DHT22;70781;52.510;5.718;2023-07-31T15:22:06;19.50;82.20
81315;DHT22;70781;52.510;5.718;2023-07-31T15:24:35;19.50;82.10
81315;DHT22;70781;52.510;5.718;2023-07-31T15:27:05;19.50;82.10
81315;DHT22;70781;52.510;5.718;2023-07-31T15:29:35;19.50;82.10
81315;DHT22;70781;52.510;5.718;2023-07-31T15:32:06;19.40;82.10
81315;DHT22;70781;52.510;5.718;2023-07-31T15:34:38;19.40;82.10
81315;DHT22;70781;52.510;5.718;2023-07-31T15:37:07;19.40;82.10
81315;DHT22;70781;52.510;5.718;2023-07-31T15:39:36;19.40;82.20
81315;DHT22;70781;52.510;5.718;2023-07-31T15:42:06;19.40;82.20
81315;DHT22;70781;52.510;5.718;2023-07-31T15:44:35;19.40;82.20
81315;DHT22;70781;52.510;5.718;2023-07-31T15:47:05;19.50;82.20
81315;DHT22;70781;52.510;5.718;2023-07-31T15:49:34;19.50;82.20